sensor_id;sensor_type;location;lat;lon;timestamp;P1;durP1;ratioP1;P2;durP2;ratioP2
31910;SDS011;18457;52.432;16.914;2023-11-19T00:01:03;89.50;;;34.90;;
31910;SDS011;18457;52.432;16.914;2023-11-19T00:03:56;81.10;;;35.90;;
31910;SDS011;18457;52.432;16.914;2023-11-19T00:06:28;80.30;;;33.30;;
31910;SDS011;18457;52.432;16.914;2023-11-19T00:09:00;83.00;;;34.10;;
31910;SDS011;18457;52.432;16.914;2023-11-19T00:11:33;71.50;;;32.00;;
31910;SDS011;18457;52.432;16.914;2023-11-19T00:14:05;72.00;;;32.60;;
31910;SDS011;18457;52.432;16.914;2023-11-19T00:19:08;71.30;;;30.50;;
31910;SDS011;18457;52.432;16.914;2023-11-19T00:21:41;82.20;;;33.50;;
31910;SDS011;18457;52.432;16.914;2023-11-19T00:24:13;82.60;;;33.30;;
31910;SDS011;18457;52.432;16.914;2023-11-19T00:26:46;79.20;;;34.70;;
31910;SDS011;18457;52.432;16.914;2023-11-19T00:29:19;74.70;;;32.90;;
31910;SDS011;18457;52.432;16.914;2023-11-19T00:34:22;80.00;;;34.90;;
31910;SDS011;18457;52.432;16.914;2023-11-19T00:39:25;75.80;;;33.30;;
31910;SDS011;18457;52.432;16.914;2023-11-19T00:41:58;82.40;;;35.30;;
31910;SDS011;18457;52.432;16.914;2023-11-19T00:44:30;83.70;;;34.80;;
31910;SDS011;18457;52.432;16.914;2023-11-19T00:49:34;86.50;;;36.40;;
31910;SDS011;18457;52.432;16.914;2023-11-19T00:52:06;92.00;;;37.40;;
31910;SDS011;18457;52.432;16.914;2023-11-19T00:54:38;94.80;;;35.90;;
31910;SDS011;18457;52.432;16.914;2023-11-19T00:57:10;79.70;;;36.80;;
31910;SDS011;18457;52.432;16.914;2023-11-19T00:59:42;92.70;;;38.30;;
31910;SDS011;18457;52.432;16.914;2023-11-19T01:02:17;83.30;;;36.00;;
31910;SDS011;18457;52.432;16.914;2023-11-19T01:04:49;90.70;;;37.90;;
31910;SDS011;18457;52.432;16.914;2023-11-19T01:07:22;84.90;;;37.10;;
31910;SDS011;18457;52.432;16.914;2023-11-19T01:09:56;87.90;;;38.30;;
31910;SDS011;18457;52.432;16.914;2023-11-19T01:12:28;83.40;;;36.20;;
31910;SDS011;18457;52.432;16.914;2023-11-19T01:15:02;93.30;;;37.00;;
31910;SDS011;18457;52.432;16.914;2023-11-19T01:17:37;79.30;;;35.30;;
31910;SDS011;18457;52.432;16.914;2023-11-19T01:20:21;84.00;;;34.00;;
31910;SDS011;18457;52.432;16.914;2023-11-19T01:22:53;87.50;;;34.60;;
31910;SDS011;18457;52.432;16.914;2023-11-19T01:25:25;77.30;;;32.30;;
31910;SDS011;18457;52.432;16.914;2023-11-19T01:27:58;84.60;;;33.80;;
31910;SDS011;18457;52.432;16.914;2023-11-19T01:30:31;71.00;;;32.00;;
31910;SDS011;18457;52.432;16.914;2023-11-19T01:33:04;78.00;;;33.20;;
31910;SDS011;18457;52.432;16.914;2023-11-19T01:35:36;86.90;;;33.00;;
31910;SDS011;18457;52.432;16.914;2023-11-19T01:38:10;71.50;;;31.50;;
31910;SDS011;18457;52.432;16.914;2023-11-19T01:40:42;79.90;;;33.30;;
31910;SDS011;18457;52.432;16.914;2023-11-19T01:46:04;70.70;;;31.70;;
31910;SDS011;18457;52.432;16.914;2023-11-19T01:48:39;73.40;;;30.00;;
31910;SDS011;18457;52.432;16.914;2023-11-19T01:51:15;69.80;;;31.50;;
31910;SDS011;18457;52.432;16.914;2023-11-19T01:53:49;71.30;;;30.50;;
31910;SDS011;18457;52.432;16.914;2023-11-19T01:56:22;75.10;;;33.30;;
31910;SDS011;18457;52.432;16.914;2023-11-19T01:58:56;83.10;;;33.20;;
31910;SDS011;18457;52.432;16.914;2023-11-19T02:01:29;73.20;;;30.60;;
31910;SDS011;18457;52.432;16.914;2023-11-19T02:04:04;78.30;;;33.60;;
31910;SDS011;18457;52.432;16.914;2023-11-19T02:06:38;80.70;;;33.40;;
31910;SDS011;18457;52.432;16.914;2023-11-19T02:09:12;82.50;;;32.00;;
31910;SDS011;18457;52.432;16.914;2023-11-19T02:11:48;84.10;;;33.00;;
31910;SDS011;18457;52.432;16.914;2023-11-19T02:16:54;82.30;;;32.50;;
31910;SDS011;18457;52.432;16.914;2023-11-19T02:19:26;74.40;;;32.40;;
31910;SDS011;18457;52.432;16.914;2023-11-19T02:21:59;75.80;;;30.70;;
31910;SDS011;18457;52.432;16.914;2023-11-19T02:24:31;78.10;;;32.00;;
31910;SDS011;18457;52.432;16.914;2023-11-19T02:27:06;70.10;;;31.70;;
31910;SDS011;18457;52.432;16.914;2023-11-19T02:29:46;74.40;;;30.70;;
31910;SDS011;18457;52.432;16.914;2023-11-19T02:32:19;72.80;;;29.50;;
31910;SDS011;18457;52.432;16.914;2023-11-19T02:34:51;70.40;;;29.50;;
31910;SDS011;18457;52.432;16.914;2023-11-19T02:37:35;65.60;;;31.00;;
31910;SDS011;18457;52.432;16.914;2023-11-19T02:40:08;72.60;;;31.20;;
31910;SDS011;18457;52.432;16.914;2023-11-19T02:42:42;70.70;;;29.60;;
31910;SDS011;18457;52.432;16.914;2023-11-19T02:45:15;74.20;;;30.40;;
31910;SDS011;18457;52.432;16.914;2023-11-19T02:47:47;80.20;;;32.00;;
31910;SDS011;18457;52.432;16.914;2023-11-19T02:50:19;76.20;;;31.10;;
31910;SDS011;18457;52.432;16.914;2023-11-19T02:52:55;84.60;;;31.20;;
31910;SDS011;18457;52.432;16.914;2023-11-19T02:58:03;71.10;;;29.90;;
31910;SDS011;18457;52.432;16.914;2023-11-19T03:00:49;84.80;;;32.60;;
31910;SDS011;18457;52.432;16.914;2023-11-19T03:03:27;77.10;;;31.80;;
31910;SDS011;18457;52.432;16.914;2023-11-19T03:06:08;77.80;;;31.90;;
31910;SDS011;18457;52.432;16.914;2023-11-19T03:08:41;68.40;;;30.50;;
31910;SDS011;18457;52.432;16.914;2023-11-19T03:11:13;79.60;;;33.90;;
31910;SDS011;18457;52.432;16.914;2023-11-19T03:13:48;83.60;;;33.10;;
31910;SDS011;18457;52.432;16.914;2023-11-19T03:16:20;78.30;;;33.50;;
31910;SDS011;18457;52.432;16.914;2023-11-19T03:18:53;79.30;;;32.20;;
31910;SDS011;18457;52.432;16.914;2023-11-19T03:24:00;77.80;;;31.90;;
31910;SDS011;18457;52.432;16.914;2023-11-19T03:29:04;78.40;;;31.10;;
31910;SDS011;18457;52.432;16.914;2023-11-19T03:31:36;81.30;;;33.90;;
31910;SDS011;18457;52.432;16.914;2023-11-19T03:34:14;84.70;;;33.50;;
31910;SDS011;18457;52.432;16.914;2023-11-19T03:36:46;80.90;;;32.70;;
31910;SDS011;18457;52.432;16.914;2023-11-19T03:39:18;71.30;;;28.00;;
31910;SDS011;18457;52.432;16.914;2023-11-19T03:41:54;79.30;;;33.40;;
31910;SDS011;18457;52.432;16.914;2023-11-19T03:44:26;81.00;;;34.20;;
31910;SDS011;18457;52.432;16.914;2023-11-19T03:49:29;86.50;;;34.70;;
31910;SDS011;18457;52.432;16.914;2023-11-19T03:52:02;79.10;;;34.40;;
31910;SDS011;18457;52.432;16.914;2023-11-19T03:54:35;87.80;;;35.40;;
31910;SDS011;18457;52.432;16.914;2023-11-19T03:57:07;79.50;;;32.30;;
31910;SDS011;18457;52.432;16.914;2023-11-19T03:59:41;89.10;;;35.00;;
31910;SDS011;18457;52.432;16.914;2023-11-19T04:04:45;73.70;;;32.40;;
31910;SDS011;18457;52.432;16.914;2023-11-19T04:07:17;82.50;;;34.40;;
31910;SDS011;18457;52.432;16.914;2023-11-19T04:09:50;81.10;;;33.30;;
31910;SDS011;18457;52.432;16.914;2023-11-19T04:12:22;75.40;;;33.40;;
31910;SDS011;18457;52.432;16.914;2023-11-19T04:14:54;76.80;;;31.60;;
31910;SDS011;18457;52.432;16.914;2023-11-19T04:17:29;79.20;;;32.00;;
31910;SDS011;18457;52.432;16.914;2023-11-19T04:20:01;79.80;;;31.60;;
31910;SDS011;18457;52.432;16.914;2023-11-19T04:22:35;74.00;;;30.50;;
31910;SDS011;18457;52.432;16.914;2023-11-19T04:25:08;75.60;;;31.20;;
31910;SDS011;18457;52.432;16.914;2023-11-19T04:27:40;74.20;;;31.80;;
31910;SDS011;18457;52.432;16.914;2023-11-19T04:30:13;77.00;;;33.90;;
31910;SDS011;18457;52.432;16.914;2023-11-19T04:32:45;78.60;;;34.00;;
31910;SDS011;18457;52.432;16.914;2023-11-19T04:35:18;76.50;;;32.20;;
31910;SDS011;18457;52.432;16.914;2023-11-19T04:37:50;66.50;;;30.60;;
31910;SDS011;18457;52.432;16.914;2023-11-19T04:40:22;77.10;;;32.70;;
31910;SDS011;18457;52.432;16.914;2023-11-19T04:45:25;79.10;;;31.50;;
31910;SDS011;18457;52.432;16.914;2023-11-19T04:47:58;68.60;;;29.50;;
31910;SDS011;18457;52.432;16.914;2023-11-19T04:50:30;71.80;;;30.80;;
31910;SDS011;18457;52.432;16.914;2023-11-19T04:53:02;92.10;;;34.30;;
31910;SDS011;18457;52.432;16.914;2023-11-19T04:55:35;76.30;;;30.20;;
31910;SDS011;18457;52.432;16.914;2023-11-19T04:58:07;73.60;;;29.50;;
31910;SDS011;18457;52.432;16.914;2023-11-19T05:00:40;77.30;;;30.40;;
31910;SDS011;18457;52.432;16.914;2023-11-19T05:03:12;73.30;;;29.60;;
31910;SDS011;18457;52.432;16.914;2023-11-19T05:05:44;71.20;;;29.30;;
31910;SDS011;18457;52.432;16.914;2023-11-19T05:08:17;72.20;;;30.50;;
31910;SDS011;18457;52.432;16.914;2023-11-19T05:10:49;69.80;;;32.10;;
31910;SDS011;18457;52.432;16.914;2023-11-19T05:13:22;70.10;;;29.40;;
31910;SDS011;18457;52.432;16.914;2023-11-19T05:15:54;68.60;;;31.20;;
31910;SDS011;18457;52.432;16.914;2023-11-19T05:18:26;70.90;;;31.60;;
31910;SDS011;18457;52.432;16.914;2023-11-19T05:20:58;73.40;;;31.20;;
31910;SDS011;18457;52.432;16.914;2023-11-19T05:23:31;77.90;;;31.30;;
31910;SDS011;18457;52.432;16.914;2023-11-19T05:26:03;71.90;;;30.60;;
31910;SDS011;18457;52.432;16.914;2023-11-19T05:28:38;67.40;;;30.00;;
31910;SDS011;18457;52.432;16.914;2023-11-19T05:31:10;67.10;;;27.90;;
31910;SDS011;18457;52.432;16.914;2023-11-19T05:33:43;72.20;;;30.10;;
31910;SDS011;18457;52.432;16.914;2023-11-19T05:36:15;66.90;;;29.30;;
31910;SDS011;18457;52.432;16.914;2023-11-19T05:38:47;64.70;;;27.60;;
31910;SDS011;18457;52.432;16.914;2023-11-19T05:41:19;53.30;;;22.30;;
31910;SDS011;18457;52.432;16.914;2023-11-19T05:43:51;72.40;;;28.80;;
31910;SDS011;18457;52.432;16.914;2023-11-19T05:46:23;75.50;;;29.50;;
31910;SDS011;18457;52.432;16.914;2023-11-19T05:51:27;71.70;;;28.30;;
31910;SDS011;18457;52.432;16.914;2023-11-19T05:53:59;60.50;;;27.50;;
31910;SDS011;18457;52.432;16.914;2023-11-19T05:56:31;69.40;;;27.60;;
31910;SDS011;18457;52.432;16.914;2023-11-19T05:59:04;56.60;;;26.00;;
31910;SDS011;18457;52.432;16.914;2023-11-19T06:01:44;64.20;;;27.60;;
31910;SDS011;18457;52.432;16.914;2023-11-19T06:04:16;68.10;;;26.90;;
31910;SDS011;18457;52.432;16.914;2023-11-19T06:06:48;63.60;;;25.80;;
31910;SDS011;18457;52.432;16.914;2023-11-19T06:09:21;46.20;;;21.90;;
31910;SDS011;18457;52.432;16.914;2023-11-19T06:11:53;70.20;;;27.50;;
31910;SDS011;18457;52.432;16.914;2023-11-19T06:14:26;61.10;;;24.30;;
31910;SDS011;18457;52.432;16.914;2023-11-19T06:16:59;60.70;;;26.10;;
31910;SDS011;18457;52.432;16.914;2023-11-19T06:19:34;62.70;;;26.10;;
31910;SDS011;18457;52.432;16.914;2023-11-19T06:22:06;63.30;;;26.50;;
31910;SDS011;18457;52.432;16.914;2023-11-19T06:24:38;58.60;;;25.70;;
31910;SDS011;18457;52.432;16.914;2023-11-19T06:27:10;66.40;;;26.60;;
31910;SDS011;18457;52.432;16.914;2023-11-19T06:29:43;60.30;;;25.70;;
31910;SDS011;18457;52.432;16.914;2023-11-19T06:32:15;57.30;;;26.20;;
31910;SDS011;18457;52.432;16.914;2023-11-19T06:34:47;57.80;;;25.70;;
31910;SDS011;18457;52.432;16.914;2023-11-19T06:37:20;55.90;;;25.20;;
31910;SDS011;18457;52.432;16.914;2023-11-19T06:39:52;62.50;;;28.10;;
31910;SDS011;18457;52.432;16.914;2023-11-19T06:42:24;43.60;;;19.40;;
31910;SDS011;18457;52.432;16.914;2023-11-19T06:44:56;56.70;;;24.50;;
31910;SDS011;18457;52.432;16.914;2023-11-19T06:47:29;63.90;;;27.10;;
31910;SDS011;18457;52.432;16.914;2023-11-19T06:50:01;62.10;;;26.30;;
31910;SDS011;18457;52.432;16.914;2023-11-19T06:52:35;60.70;;;24.50;;
31910;SDS011;18457;52.432;16.914;2023-11-19T06:57:39;50.20;;;19.10;;
31910;SDS011;18457;52.432;16.914;2023-11-19T07:00:12;59.50;;;27.20;;
31910;SDS011;18457;52.432;16.914;2023-11-19T07:02:45;64.10;;;26.70;;
31910;SDS011;18457;52.432;16.914;2023-11-19T07:05:19;58.70;;;26.90;;
31910;SDS011;18457;52.432;16.914;2023-11-19T07:07:52;62.20;;;26.10;;
31910;SDS011;18457;52.432;16.914;2023-11-19T07:10:25;64.50;;;24.80;;
31910;SDS011;18457;52.432;16.914;2023-11-19T07:12:59;53.40;;;23.40;;
31910;SDS011;18457;52.432;16.914;2023-11-19T07:15:31;52.60;;;23.40;;
31910;SDS011;18457;52.432;16.914;2023-11-19T07:18:04;59.00;;;24.70;;
31910;SDS011;18457;52.432;16.914;2023-11-19T07:23:07;49.90;;;23.20;;
31910;SDS011;18457;52.432;16.914;2023-11-19T07:25:39;52.80;;;24.30;;
31910;SDS011;18457;52.432;16.914;2023-11-19T07:30:42;50.00;;;22.70;;
31910;SDS011;18457;52.432;16.914;2023-11-19T07:35:45;52.90;;;23.10;;
31910;SDS011;18457;52.432;16.914;2023-11-19T07:38:18;54.60;;;23.50;;
31910;SDS011;18457;52.432;16.914;2023-11-19T07:40:50;51.80;;;21.60;;
31910;SDS011;18457;52.432;16.914;2023-11-19T07:43:25;48.10;;;21.30;;
31910;SDS011;18457;52.432;16.914;2023-11-19T07:45:57;50.90;;;22.10;;
31910;SDS011;18457;52.432;16.914;2023-11-19T07:48:29;49.10;;;21.20;;
31910;SDS011;18457;52.432;16.914;2023-11-19T07:51:01;54.70;;;21.90;;
31910;SDS011;18457;52.432;16.914;2023-11-19T07:58:39;48.90;;;20.40;;
31910;SDS011;18457;52.432;16.914;2023-11-19T08:01:11;47.60;;;19.60;;
31910;SDS011;18457;52.432;16.914;2023-11-19T08:03:45;49.10;;;20.50;;
31910;SDS011;18457;52.432;16.914;2023-11-19T08:06:20;48.60;;;20.70;;
31910;SDS011;18457;52.432;16.914;2023-11-19T08:08:53;49.50;;;21.00;;
31910;SDS011;18457;52.432;16.914;2023-11-19T08:11:25;51.50;;;20.60;;
31910;SDS011;18457;52.432;16.914;2023-11-19T08:13:57;49.60;;;21.50;;
31910;SDS011;18457;52.432;16.914;2023-11-19T08:16:29;52.10;;;22.30;;
31910;SDS011;18457;52.432;16.914;2023-11-19T08:19:01;52.10;;;21.80;;
31910;SDS011;18457;52.432;16.914;2023-11-19T08:21:34;40.80;;;18.70;;
31910;SDS011;18457;52.432;16.914;2023-11-19T08:26:37;47.50;;;19.40;;
31910;SDS011;18457;52.432;16.914;2023-11-19T08:29:11;45.60;;;20.10;;
31910;SDS011;18457;52.432;16.914;2023-11-19T08:31:43;48.30;;;20.10;;
31910;SDS011;18457;52.432;16.914;2023-11-19T08:34:15;47.90;;;20.30;;
31910;SDS011;18457;52.432;16.914;2023-11-19T08:36:51;47.10;;;21.40;;
31910;SDS011;18457;52.432;16.914;2023-11-19T08:39:23;50.00;;;21.70;;
31910;SDS011;18457;52.432;16.914;2023-11-19T08:41:55;38.90;;;20.60;;
31910;SDS011;18457;52.432;16.914;2023-11-19T08:44:28;44.40;;;19.50;;
31910;SDS011;18457;52.432;16.914;2023-11-19T08:47:00;50.40;;;20.60;;
31910;SDS011;18457;52.432;16.914;2023-11-19T08:49:32;44.70;;;20.60;;
31910;SDS011;18457;52.432;16.914;2023-11-19T08:52:04;43.40;;;20.30;;
31910;SDS011;18457;52.432;16.914;2023-11-19T08:54:37;41.50;;;19.40;;
31910;SDS011;18457;52.432;16.914;2023-11-19T08:57:12;48.70;;;20.80;;
31910;SDS011;18457;52.432;16.914;2023-11-19T08:59:44;43.30;;;20.80;;
31910;SDS011;18457;52.432;16.914;2023-11-19T09:02:17;46.00;;;20.40;;
31910;SDS011;18457;52.432;16.914;2023-11-19T09:04:49;43.20;;;20.40;;
31910;SDS011;18457;52.432;16.914;2023-11-19T09:07:23;45.60;;;19.90;;
31910;SDS011;18457;52.432;16.914;2023-11-19T09:09:55;46.30;;;20.30;;
31910;SDS011;18457;52.432;16.914;2023-11-19T09:14:58;47.20;;;20.40;;
31910;SDS011;18457;52.432;16.914;2023-11-19T09:17:32;49.50;;;21.50;;
31910;SDS011;18457;52.432;16.914;2023-11-19T09:22:37;40.40;;;15.50;;
31910;SDS011;18457;52.432;16.914;2023-11-19T09:25:09;50.40;;;21.00;;
31910;SDS011;18457;52.432;16.914;2023-11-19T09:27:46;46.60;;;20.40;;
31910;SDS011;18457;52.432;16.914;2023-11-19T09:30:19;44.90;;;21.00;;
31910;SDS011;18457;52.432;16.914;2023-11-19T09:32:51;48.90;;;20.70;;
31910;SDS011;18457;52.432;16.914;2023-11-19T09:35:24;49.80;;;21.70;;
31910;SDS011;18457;52.432;16.914;2023-11-19T09:37:56;44.80;;;20.60;;
31910;SDS011;18457;52.432;16.914;2023-11-19T09:40:32;50.80;;;21.60;;
31910;SDS011;18457;52.432;16.914;2023-11-19T09:43:04;46.60;;;21.80;;
31910;SDS011;18457;52.432;16.914;2023-11-19T09:45:39;44.50;;;20.00;;
31910;SDS011;18457;52.432;16.914;2023-11-19T09:48:20;42.70;;;18.80;;
31910;SDS011;18457;52.432;16.914;2023-11-19T09:50:55;41.80;;;19.30;;
31910;SDS011;18457;52.432;16.914;2023-11-19T09:53:27;44.60;;;20.20;;
31910;SDS011;18457;52.432;16.914;2023-11-19T09:56:01;44.80;;;19.60;;
31910;SDS011;18457;52.432;16.914;2023-11-19T09:58:35;47.80;;;20.40;;
31910;SDS011;18457;52.432;16.914;2023-11-19T10:01:07;41.90;;;19.10;;
31910;SDS011;18457;52.432;16.914;2023-11-19T10:03:45;44.10;;;20.30;;
31910;SDS011;18457;52.432;16.914;2023-11-19T10:06:21;43.40;;;19.10;;
31910;SDS011;18457;52.432;16.914;2023-11-19T10:08:56;38.30;;;19.10;;
31910;SDS011;18457;52.432;16.914;2023-11-19T10:11:30;37.50;;;19.00;;
31910;SDS011;18457;52.432;16.914;2023-11-19T10:14:03;42.20;;;19.40;;
31910;SDS011;18457;52.432;16.914;2023-11-19T10:16:36;41.60;;;19.40;;
31910;SDS011;18457;52.432;16.914;2023-11-19T10:19:13;36.30;;;17.00;;
31910;SDS011;18457;52.432;16.914;2023-11-19T10:21:51;40.20;;;19.10;;
31910;SDS011;18457;52.432;16.914;2023-11-19T10:24:32;45.00;;;19.00;;
31910;SDS011;18457;52.432;16.914;2023-11-19T10:27:12;39.00;;;17.30;;
31910;SDS011;18457;52.432;16.914;2023-11-19T10:29:45;39.00;;;18.70;;
31910;SDS011;18457;52.432;16.914;2023-11-19T10:32:18;38.90;;;18.60;;
31910;SDS011;18457;52.432;16.914;2023-11-19T10:35:05;40.20;;;18.60;;
31910;SDS011;18457;52.432;16.914;2023-11-19T10:37:42;39.80;;;17.70;;
31910;SDS011;18457;52.432;16.914;2023-11-19T10:40:16;37.90;;;17.60;;
31910;SDS011;18457;52.432;16.914;2023-11-19T10:42:54;37.40;;;17.50;;
31910;SDS011;18457;52.432;16.914;2023-11-19T10:45:34;36.80;;;18.20;;
31910;SDS011;18457;52.432;16.914;2023-11-19T10:48:08;34.40;;;16.60;;
31910;SDS011;18457;52.432;16.914;2023-11-19T10:50:43;35.50;;;16.90;;
31910;SDS011;18457;52.432;16.914;2023-11-19T10:53:17;38.60;;;16.60;;
31910;SDS011;18457;52.432;16.914;2023-11-19T10:55:52;34.60;;;17.20;;
31910;SDS011;18457;52.432;16.914;2023-11-19T10:58:29;30.90;;;15.80;;
31910;SDS011;18457;52.432;16.914;2023-11-19T11:01:09;32.50;;;15.80;;
31910;SDS011;18457;52.432;16.914;2023-11-19T11:03:47;35.90;;;16.00;;
31910;SDS011;18457;52.432;16.914;2023-11-19T11:06:23;31.60;;;14.80;;
31910;SDS011;18457;52.432;16.914;2023-11-19T11:08:57;35.80;;;16.20;;
31910;SDS011;18457;52.432;16.914;2023-11-19T11:11:31;27.20;;;13.90;;
31910;SDS011;18457;52.432;16.914;2023-11-19T11:14:04;34.40;;;16.60;;
31910;SDS011;18457;52.432;16.914;2023-11-19T11:16:39;29.80;;;16.40;;
31910;SDS011;18457;52.432;16.914;2023-11-19T11:19:15;28.90;;;14.50;;
31910;SDS011;18457;52.432;16.914;2023-11-19T11:21:49;30.80;;;15.20;;
31910;SDS011;18457;52.432;16.914;2023-11-19T11:24:28;31.50;;;14.60;;
31910;SDS011;18457;52.432;16.914;2023-11-19T11:27:20;32.40;;;14.90;;
31910;SDS011;18457;52.432;16.914;2023-11-19T11:30:28;31.30;;;15.60;;
31910;SDS011;18457;52.432;16.914;2023-11-19T11:33:14;31.40;;;14.80;;
31910;SDS011;18457;52.432;16.914;2023-11-19T11:35:58;34.20;;;16.30;;
31910;SDS011;18457;52.432;16.914;2023-11-19T11:38:43;29.70;;;15.00;;
31910;SDS011;18457;52.432;16.914;2023-11-19T11:41:19;34.60;;;16.20;;
31910;SDS011;18457;52.432;16.914;2023-11-19T11:43:58;41.50;;;17.90;;
31910;SDS011;18457;52.432;16.914;2023-11-19T11:49:27;39.60;;;18.50;;
31910;SDS011;18457;52.432;16.914;2023-11-19T11:52:02;38.60;;;18.00;;
31910;SDS011;18457;52.432;16.914;2023-11-19T11:54:35;39.30;;;18.30;;
31910;SDS011;18457;52.432;16.914;2023-11-19T11:57:10;46.10;;;20.30;;
31910;SDS011;18457;52.432;16.914;2023-11-19T11:59:48;37.40;;;17.50;;
31910;SDS011;18457;52.432;16.914;2023-11-19T12:02:22;42.40;;;18.50;;
31910;SDS011;18457;52.432;16.914;2023-11-19T12:04:56;44.60;;;20.10;;
31910;SDS011;18457;52.432;16.914;2023-11-19T12:07:30;47.10;;;20.70;;
31910;SDS011;18457;52.432;16.914;2023-11-19T12:10:07;47.20;;;20.50;;
31910;SDS011;18457;52.432;16.914;2023-11-19T12:12:41;48.80;;;20.00;;
31910;SDS011;18457;52.432;16.914;2023-11-19T12:15:13;44.70;;;21.90;;
31910;SDS011;18457;52.432;16.914;2023-11-19T12:17:49;43.20;;;20.40;;
31910;SDS011;18457;52.432;16.914;2023-11-19T12:20:22;43.30;;;20.40;;
31910;SDS011;18457;52.432;16.914;2023-11-19T12:22:58;49.90;;;23.00;;
31910;SDS011;18457;52.432;16.914;2023-11-19T12:25:37;46.70;;;20.50;;
31910;SDS011;18457;52.432;16.914;2023-11-19T12:28:12;46.90;;;21.70;;
31910;SDS011;18457;52.432;16.914;2023-11-19T12:30:46;51.30;;;22.40;;
31910;SDS011;18457;52.432;16.914;2023-11-19T12:33:19;45.30;;;20.80;;
31910;SDS011;18457;52.432;16.914;2023-11-19T12:38:22;45.60;;;20.10;;
31910;SDS011;18457;52.432;16.914;2023-11-19T12:41:06;50.70;;;20.20;;
31910;SDS011;18457;52.432;16.914;2023-11-19T12:43:41;47.30;;;21.80;;
31910;SDS011;18457;52.432;16.914;2023-11-19T12:46:20;48.20;;;22.40;;
31910;SDS011;18457;52.432;16.914;2023-11-19T12:48:53;51.50;;;21.30;;
31910;SDS011;18457;52.432;16.914;2023-11-19T12:51:28;44.70;;;22.20;;
31910;SDS011;18457;52.432;16.914;2023-11-19T12:54:03;51.80;;;21.90;;
31910;SDS011;18457;52.432;16.914;2023-11-19T12:59:13;49.80;;;21.40;;
31910;SDS011;18457;52.432;16.914;2023-11-19T13:01:54;47.80;;;20.90;;
31910;SDS011;18457;52.432;16.914;2023-11-19T13:04:29;48.40;;;21.30;;
31910;SDS011;18457;52.432;16.914;2023-11-19T13:07:02;47.40;;;21.60;;
31910;SDS011;18457;52.432;16.914;2023-11-19T13:09:35;42.50;;;19.60;;
31910;SDS011;18457;52.432;16.914;2023-11-19T13:12:14;42.90;;;21.70;;
31910;SDS011;18457;52.432;16.914;2023-11-19T13:14:47;45.80;;;21.30;;
31910;SDS011;18457;52.432;16.914;2023-11-19T13:17:20;46.10;;;21.30;;
31910;SDS011;18457;52.432;16.914;2023-11-19T13:19:53;41.90;;;20.80;;
31910;SDS011;18457;52.432;16.914;2023-11-19T13:22:26;52.50;;;21.30;;
31910;SDS011;18457;52.432;16.914;2023-11-19T13:24:59;46.40;;;20.70;;
31910;SDS011;18457;52.432;16.914;2023-11-19T13:27:32;38.20;;;19.50;;
31910;SDS011;18457;52.432;16.914;2023-11-19T13:30:07;42.60;;;20.80;;
31910;SDS011;18457;52.432;16.914;2023-11-19T13:32:56;41.10;;;19.70;;
31910;SDS011;18457;52.432;16.914;2023-11-19T13:35:29;46.40;;;19.70;;
31910;SDS011;18457;52.432;16.914;2023-11-19T13:38:01;44.30;;;20.10;;
31910;SDS011;18457;52.432;16.914;2023-11-19T13:40:34;40.70;;;19.50;;
31910;SDS011;18457;52.432;16.914;2023-11-19T13:43:06;45.90;;;21.50;;
31910;SDS011;18457;52.432;16.914;2023-11-19T13:45:45;43.00;;;19.80;;
31910;SDS011;18457;52.432;16.914;2023-11-19T13:48:25;45.90;;;21.30;;
31910;SDS011;18457;52.432;16.914;2023-11-19T13:50:58;43.10;;;21.20;;
31910;SDS011;18457;52.432;16.914;2023-11-19T13:53:30;45.10;;;20.70;;
31910;SDS011;18457;52.432;16.914;2023-11-19T13:56:20;49.60;;;22.10;;
31910;SDS011;18457;52.432;16.914;2023-11-19T13:58:53;50.50;;;22.00;;
31910;SDS011;18457;52.432;16.914;2023-11-19T14:01:25;50.40;;;22.10;;
31910;SDS011;18457;52.432;16.914;2023-11-19T14:03:58;46.10;;;22.50;;
31910;SDS011;18457;52.432;16.914;2023-11-19T14:06:30;49.10;;;21.10;;
31910;SDS011;18457;52.432;16.914;2023-11-19T14:11:35;51.90;;;21.10;;
31910;SDS011;18457;52.432;16.914;2023-11-19T14:14:08;47.90;;;22.60;;
31910;SDS011;18457;52.432;16.914;2023-11-19T14:16:40;49.90;;;23.40;;
31910;SDS011;18457;52.432;16.914;2023-11-19T14:19:13;49.80;;;22.60;;
31910;SDS011;18457;52.432;16.914;2023-11-19T14:21:45;49.00;;;22.70;;
31910;SDS011;18457;52.432;16.914;2023-11-19T14:24:18;44.30;;;21.40;;
31910;SDS011;18457;52.432;16.914;2023-11-19T14:26:50;47.30;;;22.50;;
31910;SDS011;18457;52.432;16.914;2023-11-19T14:29:22;45.00;;;21.50;;
31910;SDS011;18457;52.432;16.914;2023-11-19T14:31:55;51.60;;;23.00;;
31910;SDS011;18457;52.432;16.914;2023-11-19T14:34:28;47.80;;;23.70;;
31910;SDS011;18457;52.432;16.914;2023-11-19T14:37:01;53.40;;;23.60;;
31910;SDS011;18457;52.432;16.914;2023-11-19T14:42:05;51.70;;;21.90;;
31910;SDS011;18457;52.432;16.914;2023-11-19T14:44:38;45.00;;;23.20;;
31910;SDS011;18457;52.432;16.914;2023-11-19T14:47:10;42.90;;;21.50;;
31910;SDS011;18457;52.432;16.914;2023-11-19T14:49:43;49.70;;;22.40;;
31910;SDS011;18457;52.432;16.914;2023-11-19T14:52:16;50.40;;;23.10;;
31910;SDS011;18457;52.432;16.914;2023-11-19T14:54:48;53.20;;;23.70;;
31910;SDS011;18457;52.432;16.914;2023-11-19T14:57:23;48.10;;;21.90;;
31910;SDS011;18457;52.432;16.914;2023-11-19T14:59:55;48.40;;;22.30;;
31910;SDS011;18457;52.432;16.914;2023-11-19T15:02:27;47.20;;;22.60;;
31910;SDS011;18457;52.432;16.914;2023-11-19T15:05:00;52.90;;;24.50;;
31910;SDS011;18457;52.432;16.914;2023-11-19T15:10:05;53.90;;;24.60;;
31910;SDS011;18457;52.432;16.914;2023-11-19T15:12:40;54.00;;;24.30;;
31910;SDS011;18457;52.432;16.914;2023-11-19T15:15:12;54.90;;;23.20;;
31910;SDS011;18457;52.432;16.914;2023-11-19T15:18:03;50.00;;;24.50;;
31910;SDS011;18457;52.432;16.914;2023-11-19T15:20:36;54.10;;;24.00;;
31910;SDS011;18457;52.432;16.914;2023-11-19T15:23:09;49.00;;;23.10;;
31910;SDS011;18457;52.432;16.914;2023-11-19T15:25:41;54.90;;;25.10;;
31910;SDS011;18457;52.432;16.914;2023-11-19T15:28:13;57.10;;;25.30;;
31910;SDS011;18457;52.432;16.914;2023-11-19T15:30:45;52.10;;;24.30;;
31910;SDS011;18457;52.432;16.914;2023-11-19T15:33:17;55.10;;;24.40;;
31910;SDS011;18457;52.432;16.914;2023-11-19T15:35:51;53.10;;;25.30;;
31910;SDS011;18457;52.432;16.914;2023-11-19T15:38:24;57.20;;;24.40;;
31910;SDS011;18457;52.432;16.914;2023-11-19T15:40:56;62.60;;;27.60;;
31910;SDS011;18457;52.432;16.914;2023-11-19T15:43:28;55.40;;;25.30;;
31910;SDS011;18457;52.432;16.914;2023-11-19T15:46:01;58.50;;;25.10;;
31910;SDS011;18457;52.432;16.914;2023-11-19T15:48:35;57.90;;;27.40;;
31910;SDS011;18457;52.432;16.914;2023-11-19T15:53:38;64.70;;;27.00;;
31910;SDS011;18457;52.432;16.914;2023-11-19T15:56:11;64.10;;;27.80;;
31910;SDS011;18457;52.432;16.914;2023-11-19T15:58:44;62.80;;;29.60;;
31910;SDS011;18457;52.432;16.914;2023-11-19T16:01:16;63.30;;;28.50;;